sensor_id;sensor_type;location;lat;lon;timestamp;P1;durP1;ratioP1;P2;durP2;ratioP2
72201;SDS011;60105;54.956;73.412;2023-04-03T00:00:11;9.53;;;4.83;;
72201;SDS011;60105;54.956;73.412;2023-04-03T00:03:50;8.77;;;4.50;;
72201;SDS011;60105;54.956;73.412;2023-04-03T00:06:52;8.95;;;4.50;;
72201;SDS011;60105;54.956;73.412;2023-04-03T00:09:58;14.40;;;5.07;;
72201;SDS011;60105;54.956;73.412;2023-04-03T00:13:00;10.00;;;4.45;;
72201;SDS011;60105;54.956;73.412;2023-04-03T00:16:01;9.37;;;4.20;;
72201;SDS011;60105;54.956;73.412;2023-04-03T00:19:04;16.37;;;4.27;;
72201;SDS011;60105;54.956;73.412;2023-04-03T00:22:05;7.50;;;3.97;;
72201;SDS011;60105;54.956;73.412;2023-04-03T00:25:07;13.88;;;5.43;;
72201;SDS011;60105;54.956;73.412;2023-04-03T00:28:50;12.69;;;5.97;;
72201;SDS011;60105;54.956;73.412;2023-04-03T00:31:51;16.77;;;6.63;;
72201;SDS011;60105;54.956;73.412;2023-04-03T00:34:53;15.63;;;7.03;;
72201;SDS011;60105;54.956;73.412;2023-04-03T00:37:54;14.38;;;4.93;;
72201;SDS011;60105;54.956;73.412;2023-04-03T00:40:56;8.20;;;4.88;;
72201;SDS011;60105;54.956;73.412;2023-04-03T00:43:57;10.77;;;5.28;;
72201;SDS011;60105;54.956;73.412;2023-04-03T00:47:10;13.30;;;4.88;;
72201;SDS011;60105;54.956;73.412;2023-04-03T00:50:20;9.77;;;4.37;;
72201;SDS011;60105;54.956;73.412;2023-04-03T00:53:52;11.85;;;4.93;;
72201;SDS011;60105;54.956;73.412;2023-04-03T00:57:00;8.90;;;4.47;;
72201;SDS011;60105;54.956;73.412;2023-04-03T01:00:04;12.30;;;5.40;;
72201;SDS011;60105;54.956;73.412;2023-04-03T01:03:50;8.71;;;4.88;;
72201;SDS011;60105;54.956;73.412;2023-04-03T01:06:53;8.73;;;5.07;;
72201;SDS011;60105;54.956;73.412;2023-04-03T01:09:58;13.00;;;5.70;;
72201;SDS011;60105;54.956;73.412;2023-04-03T01:13:01;19.20;;;7.28;;
72201;SDS011;60105;54.956;73.412;2023-04-03T01:16:17;9.60;;;4.83;;
72201;SDS011;60105;54.956;73.412;2023-04-03T01:19:19;10.77;;;5.32;;
72201;SDS011;60105;54.956;73.412;2023-04-03T01:22:26;15.82;;;5.35;;
72201;SDS011;60105;54.956;73.412;2023-04-03T01:25:40;9.10;;;5.17;;
72201;SDS011;60105;54.956;73.412;2023-04-03T01:31:54;24.50;;;5.75;;
72201;SDS011;60105;54.956;73.412;2023-04-03T01:34:58;12.93;;;5.45;;
72201;SDS011;60105;54.956;73.412;2023-04-03T01:37:59;11.53;;;5.23;;
72201;SDS011;60105;54.956;73.412;2023-04-03T01:41:00;10.27;;;5.32;;
72201;SDS011;60105;54.956;73.412;2023-04-03T01:44:02;7.37;;;4.50;;
72201;SDS011;60105;54.956;73.412;2023-04-03T01:47:07;9.85;;;4.63;;
72201;SDS011;60105;54.956;73.412;2023-04-03T01:50:09;14.48;;;5.45;;
72201;SDS011;60105;54.956;73.412;2023-04-03T01:53:50;9.30;;;5.25;;
72201;SDS011;60105;54.956;73.412;2023-04-03T01:57:03;13.13;;;5.53;;
72201;SDS011;60105;54.956;73.412;2023-04-03T02:00:05;10.00;;;4.53;;
72201;SDS011;60105;54.956;73.412;2023-04-03T02:03:50;16.63;;;4.88;;
72201;SDS011;60105;54.956;73.412;2023-04-03T02:06:51;18.53;;;5.70;;
72201;SDS011;60105;54.956;73.412;2023-04-03T02:10:03;13.18;;;4.63;;
72201;SDS011;60105;54.956;73.412;2023-04-03T02:13:04;11.93;;;4.88;;
72201;SDS011;60105;54.956;73.412;2023-04-03T02:16:06;10.53;;;4.50;;
72201;SDS011;60105;54.956;73.412;2023-04-03T02:19:09;16.75;;;4.88;;
72201;SDS011;60105;54.956;73.412;2023-04-03T02:22:10;13.55;;;5.18;;
72201;SDS011;60105;54.956;73.412;2023-04-03T02:25:11;12.05;;;4.82;;
72201;SDS011;60105;54.956;73.412;2023-04-03T02:28:50;14.23;;;4.35;;
72201;SDS011;60105;54.956;73.412;2023-04-03T02:31:51;14.63;;;4.70;;
72201;SDS011;60105;54.956;73.412;2023-04-03T02:34:54;7.55;;;3.92;;
72201;SDS011;60105;54.956;73.412;2023-04-03T02:37:57;8.60;;;4.47;;
72201;SDS011;60105;54.956;73.412;2023-04-03T02:41:03;14.47;;;4.57;;
72201;SDS011;60105;54.956;73.412;2023-04-03T02:44:06;7.43;;;4.07;;
72201;SDS011;60105;54.956;73.412;2023-04-03T02:47:10;9.40;;;4.25;;
72201;SDS011;60105;54.956;73.412;2023-04-03T02:50:11;6.87;;;3.73;;
72201;SDS011;60105;54.956;73.412;2023-04-03T02:53:50;8.05;;;3.92;;
72201;SDS011;60105;54.956;73.412;2023-04-03T02:56:56;13.27;;;4.25;;
72201;SDS011;60105;54.956;73.412;2023-04-03T02:59:58;27.02;;;9.80;;
72201;SDS011;60105;54.956;73.412;2023-04-03T03:03:50;20.18;;;6.55;;
72201;SDS011;60105;54.956;73.412;2023-04-03T03:06:51;23.90;;;9.87;;
72201;SDS011;60105;54.956;73.412;2023-04-03T03:09:53;35.60;;;15.67;;
72201;SDS011;60105;54.956;73.412;2023-04-03T03:12:54;22.60;;;10.90;;
72201;SDS011;60105;54.956;73.412;2023-04-03T03:15:57;15.87;;;5.97;;
72201;SDS011;60105;54.956;73.412;2023-04-03T03:18:58;11.77;;;5.33;;
72201;SDS011;60105;54.956;73.412;2023-04-03T03:22:10;10.38;;;5.18;;
72201;SDS011;60105;54.956;73.412;2023-04-03T03:25:12;10.20;;;5.55;;
72201;SDS011;60105;54.956;73.412;2023-04-03T03:28:50;8.40;;;5.28;;
72201;SDS011;60105;54.956;73.412;2023-04-03T03:31:52;12.53;;;5.73;;
72201;SDS011;60105;54.956;73.412;2023-04-03T03:34:53;12.07;;;4.90;;
72201;SDS011;60105;54.956;73.412;2023-04-03T03:37:54;14.00;;;6.13;;
72201;SDS011;60105;54.956;73.412;2023-04-03T03:40:57;14.85;;;6.38;;
72201;SDS011;60105;54.956;73.412;2023-04-03T03:43:58;12.03;;;5.07;;
72201;SDS011;60105;54.956;73.412;2023-04-03T03:47:02;10.85;;;4.55;;
72201;SDS011;60105;54.956;73.412;2023-04-03T03:50:04;8.90;;;5.23;;
72201;SDS011;60105;54.956;73.412;2023-04-03T03:53:50;10.71;;;5.37;;
72201;SDS011;60105;54.956;73.412;2023-04-03T03:56:53;10.98;;;5.20;;
72201;SDS011;60105;54.956;73.412;2023-04-03T03:59:57;14.55;;;6.43;;
72201;SDS011;60105;54.956;73.412;2023-04-03T04:02:59;12.48;;;5.32;;
72201;SDS011;60105;54.956;73.412;2023-04-03T04:06:03;12.50;;;5.30;;
72201;SDS011;60105;54.956;73.412;2023-04-03T04:09:05;13.83;;;5.60;;
72201;SDS011;60105;54.956;73.412;2023-04-03T04:12:06;11.80;;;6.32;;
72201;SDS011;60105;54.956;73.412;2023-04-03T04:15:08;11.05;;;5.82;;
72201;SDS011;60105;54.956;73.412;2023-04-03T04:18:50;15.14;;;5.92;;
72201;SDS011;60105;54.956;73.412;2023-04-03T04:22:03;13.20;;;6.25;;
72201;SDS011;60105;54.956;73.412;2023-04-03T04:25:06;17.60;;;7.37;;
72201;SDS011;60105;54.956;73.412;2023-04-03T04:28:50;15.28;;;6.12;;
72201;SDS011;60105;54.956;73.412;2023-04-03T04:31:53;16.37;;;6.37;;
72201;SDS011;60105;54.956;73.412;2023-04-03T04:34:56;16.05;;;7.50;;
72201;SDS011;60105;54.956;73.412;2023-04-03T04:38:18;18.46;;;10.11;;
72201;SDS011;60105;54.956;73.412;2023-04-03T04:41:30;24.35;;;11.02;;
72201;SDS011;60105;54.956;73.412;2023-04-03T04:44:33;24.55;;;11.15;;
72201;SDS011;60105;54.956;73.412;2023-04-03T04:47:34;20.70;;;8.13;;
72201;SDS011;60105;54.956;73.412;2023-04-03T04:50:36;22.37;;;11.77;;
72201;SDS011;60105;54.956;73.412;2023-04-03T04:56:53;26.75;;;10.18;;
72201;SDS011;60105;54.956;73.412;2023-04-03T04:59:55;32.92;;;10.27;;
72201;SDS011;60105;54.956;73.412;2023-04-03T05:02:56;20.10;;;8.03;;
72201;SDS011;60105;54.956;73.412;2023-04-03T05:06:09;25.50;;;9.52;;
72201;SDS011;60105;54.956;73.412;2023-04-03T05:09:14;20.63;;;10.53;;
72201;SDS011;60105;54.956;73.412;2023-04-03T05:12:18;26.48;;;10.00;;
72201;SDS011;60105;54.956;73.412;2023-04-03T05:15:26;17.37;;;7.50;;
72201;SDS011;60105;54.956;73.412;2023-04-03T05:21:54;28.52;;;9.80;;
72201;SDS011;60105;54.956;73.412;2023-04-03T05:24:56;20.73;;;8.50;;
72201;SDS011;60105;54.956;73.412;2023-04-03T05:28:02;22.45;;;9.00;;
72201;SDS011;60105;54.956;73.412;2023-04-03T05:31:04;15.05;;;6.85;;
72201;SDS011;60105;54.956;73.412;2023-04-03T05:34:18;20.75;;;8.82;;
72201;SDS011;60105;54.956;73.412;2023-04-03T05:37:22;16.17;;;6.37;;
72201;SDS011;60105;54.956;73.412;2023-04-03T05:40:25;26.70;;;7.97;;
72201;SDS011;60105;54.956;73.412;2023-04-03T05:47:02;15.40;;;6.63;;
72201;SDS011;60105;54.956;73.412;2023-04-03T05:50:04;14.02;;;6.07;;
72201;SDS011;60105;54.956;73.412;2023-04-03T05:53:58;14.82;;;6.64;;
72201;SDS011;60105;54.956;73.412;2023-04-03T05:57:11;16.33;;;6.22;;
72201;SDS011;60105;54.956;73.412;2023-04-03T06:00:14;11.35;;;5.78;;
72201;SDS011;60105;54.956;73.412;2023-04-03T06:06:56;10.27;;;6.40;;
72201;SDS011;60105;54.956;73.412;2023-04-03T06:10:00;9.07;;;5.40;;
72201;SDS011;60105;54.956;73.412;2023-04-03T06:13:03;13.48;;;5.57;;
72201;SDS011;60105;54.956;73.412;2023-04-03T06:16:05;25.52;;;5.75;;
72201;SDS011;60105;54.956;73.412;2023-04-03T06:19:17;10.05;;;5.43;;
72201;SDS011;60105;54.956;73.412;2023-04-03T06:22:23;17.33;;;5.70;;
72201;SDS011;60105;54.956;73.412;2023-04-03T06:25:36;13.27;;;6.53;;
72201;SDS011;60105;54.956;73.412;2023-04-03T06:31:51;11.63;;;5.85;;
72201;SDS011;60105;54.956;73.412;2023-04-03T06:34:52;18.77;;;6.40;;
72201;SDS011;60105;54.956;73.412;2023-04-03T06:37:54;11.93;;;6.10;;
72201;SDS011;60105;54.956;73.412;2023-04-03T06:40:55;14.30;;;6.47;;
72201;SDS011;60105;54.956;73.412;2023-04-03T06:43:57;11.88;;;5.72;;
72201;SDS011;60105;54.956;73.412;2023-04-03T06:47:00;14.80;;;5.00;;
72201;SDS011;60105;54.956;73.412;2023-04-03T06:50:01;13.88;;;6.53;;
72201;SDS011;60105;54.956;73.412;2023-04-03T06:53:04;10.47;;;5.50;;
72201;SDS011;60105;54.956;73.412;2023-04-03T06:56:11;11.55;;;5.93;;
72201;SDS011;60105;54.956;73.412;2023-04-03T06:59:17;16.30;;;7.90;;
72201;SDS011;60105;54.956;73.412;2023-04-03T07:02:19;16.33;;;7.55;;
72201;SDS011;60105;54.956;73.412;2023-04-03T07:05:21;20.02;;;7.18;;
72201;SDS011;60105;54.956;73.412;2023-04-03T07:08:22;14.89;;;6.23;;
72201;SDS011;60105;54.956;73.412;2023-04-03T07:11:24;15.07;;;6.33;;
72201;SDS011;60105;54.956;73.412;2023-04-03T07:14:26;12.80;;;5.43;;
72201;SDS011;60105;54.956;73.412;2023-04-03T07:17:28;6.10;;;3.97;;
72201;SDS011;60105;54.956;73.412;2023-04-03T07:20:29;5.32;;;3.53;;
72201;SDS011;60105;54.956;73.412;2023-04-03T07:26:52;10.05;;;4.18;;
72201;SDS011;60105;54.956;73.412;2023-04-03T07:29:53;10.20;;;4.90;;
72201;SDS011;60105;54.956;73.412;2023-04-03T07:32:56;8.80;;;4.80;;
72201;SDS011;60105;54.956;73.412;2023-04-03T07:35:58;9.43;;;4.43;;
72201;SDS011;60105;54.956;73.412;2023-04-03T07:39:00;9.37;;;4.53;;
72201;SDS011;60105;54.956;73.412;2023-04-03T07:42:02;9.23;;;4.82;;
72201;SDS011;60105;54.956;73.412;2023-04-03T07:45:04;9.10;;;4.13;;
72201;SDS011;60105;54.956;73.412;2023-04-03T07:48:05;7.95;;;4.43;;
72201;SDS011;60105;54.956;73.412;2023-04-03T07:51:07;9.47;;;4.90;;
72201;SDS011;60105;54.956;73.412;2023-04-03T07:54:08;9.52;;;4.30;;
72201;SDS011;60105;54.956;73.412;2023-04-03T07:57:10;7.32;;;4.30;;
72201;SDS011;60105;54.956;73.412;2023-04-03T08:00:11;9.38;;;4.57;;
72201;SDS011;60105;54.956;73.412;2023-04-03T08:04:15;7.57;;;4.07;;
72201;SDS011;60105;54.956;73.412;2023-04-03T08:07:26;7.80;;;4.25;;
72201;SDS011;60105;54.956;73.412;2023-04-03T08:10:29;9.00;;;4.28;;
72201;SDS011;60105;54.956;73.412;2023-04-03T08:13:42;7.07;;;4.10;;
72201;SDS011;60105;54.956;73.412;2023-04-03T08:16:44;4.50;;;3.30;;
72201;SDS011;60105;54.956;73.412;2023-04-03T08:19:46;7.05;;;3.53;;
72201;SDS011;60105;54.956;73.412;2023-04-03T08:22:47;10.93;;;4.43;;
72201;SDS011;60105;54.956;73.412;2023-04-03T08:25:49;6.70;;;3.72;;
72201;SDS011;60105;54.956;73.412;2023-04-03T08:28:51;8.57;;;4.07;;
72201;SDS011;60105;54.956;73.412;2023-04-03T08:31:53;9.63;;;4.43;;
72201;SDS011;60105;54.956;73.412;2023-04-03T08:34:54;9.18;;;4.30;;
72201;SDS011;60105;54.956;73.412;2023-04-03T08:37:55;10.48;;;4.47;;
72201;SDS011;60105;54.956;73.412;2023-04-03T08:41:02;11.82;;;5.40;;
72201;SDS011;60105;54.956;73.412;2023-04-03T08:47:24;8.57;;;4.65;;
72201;SDS011;60105;54.956;73.412;2023-04-03T08:51:42;11.46;;;5.06;;
72201;SDS011;60105;54.956;73.412;2023-04-03T08:54:55;10.27;;;4.63;;
72201;SDS011;60105;54.956;73.412;2023-04-03T08:58:02;11.15;;;5.18;;
72201;SDS011;60105;54.956;73.412;2023-04-03T09:01:42;9.13;;;4.32;;
72201;SDS011;60105;54.956;73.412;2023-04-03T09:04:44;12.70;;;4.90;;
72201;SDS011;60105;54.956;73.412;2023-04-03T09:07:47;8.18;;;4.82;;
72201;SDS011;60105;54.956;73.412;2023-04-03T09:14:34;7.57;;;3.92;;
72201;SDS011;60105;54.956;73.412;2023-04-03T09:24:04;11.35;;;4.78;;
72201;SDS011;60105;54.956;73.412;2023-04-03T09:27:10;12.00;;;4.13;;
72201;SDS011;60105;54.956;73.412;2023-04-03T09:30:16;7.77;;;4.27;;
72201;SDS011;60105;54.956;73.412;2023-04-03T09:33:27;8.65;;;4.57;;
72201;SDS011;60105;54.956;73.412;2023-04-03T09:39:52;11.80;;;4.45;;
72201;SDS011;60105;54.956;73.412;2023-04-03T09:43:02;9.17;;;4.63;;
72201;SDS011;60105;54.956;73.412;2023-04-03T09:49:43;6.90;;;3.92;;
72201;SDS011;60105;54.956;73.412;2023-04-03T09:52:49;13.05;;;4.30;;
72201;SDS011;60105;54.956;73.412;2023-04-03T09:55:52;6.40;;;3.33;;
72201;SDS011;60105;54.956;73.412;2023-04-03T10:05:45;8.25;;;4.50;;
72201;SDS011;60105;54.956;73.412;2023-04-03T10:08:46;7.80;;;3.87;;
72201;SDS011;60105;54.956;73.412;2023-04-03T10:15:11;9.43;;;4.80;;
72201;SDS011;60105;54.956;73.412;2023-04-03T10:18:25;10.43;;;5.07;;
72201;SDS011;60105;54.956;73.412;2023-04-03T10:25:20;8.25;;;3.90;;
72201;SDS011;60105;54.956;73.412;2023-04-03T10:31:48;18.30;;;3.80;;
72201;SDS011;60105;54.956;73.412;2023-04-03T10:45:26;9.23;;;4.07;;
72201;SDS011;60105;54.956;73.412;2023-04-03T10:48:52;7.68;;;4.70;;
72201;SDS011;60105;54.956;73.412;2023-04-03T10:59:30;11.67;;;4.07;;
72201;SDS011;60105;54.956;73.412;2023-04-03T11:02:41;7.93;;;3.77;;
72201;SDS011;60105;54.956;73.412;2023-04-03T11:05:50;9.07;;;4.53;;
72201;SDS011;60105;54.956;73.412;2023-04-03T11:08:57;11.10;;;5.30;;
72201;SDS011;60105;54.956;73.412;2023-04-03T11:12:05;13.30;;;4.70;;
72201;SDS011;60105;54.956;73.412;2023-04-03T11:15:15;11.52;;;4.25;;
72201;SDS011;60105;54.956;73.412;2023-04-03T11:18:21;12.30;;;4.40;;
72201;SDS011;60105;54.956;73.412;2023-04-03T11:24:51;10.02;;;4.53;;
72201;SDS011;60105;54.956;73.412;2023-04-03T11:28:05;13.05;;;4.05;;
72201;SDS011;60105;54.956;73.412;2023-04-03T11:31:46;9.52;;;4.40;;
72201;SDS011;60105;54.956;73.412;2023-04-03T11:34:54;9.65;;;4.43;;
72201;SDS011;60105;54.956;73.412;2023-04-03T11:37:59;9.53;;;3.70;;
72201;SDS011;60105;54.956;73.412;2023-04-03T11:41:10;13.13;;;4.07;;
72201;SDS011;60105;54.956;73.412;2023-04-03T11:47:50;12.37;;;5.30;;
72201;SDS011;60105;54.956;73.412;2023-04-03T11:50:53;25.00;;;4.40;;
72201;SDS011;60105;54.956;73.412;2023-04-03T11:54:04;8.50;;;3.73;;
72201;SDS011;60105;54.956;73.412;2023-04-03T12:01:43;15.38;;;5.53;;
72201;SDS011;60105;54.956;73.412;2023-04-03T12:11:42;8.87;;;4.60;;
72201;SDS011;60105;54.956;73.412;2023-04-03T12:14:49;12.43;;;5.82;;
72201;SDS011;60105;54.956;73.412;2023-04-03T12:17:52;12.60;;;5.47;;
72201;SDS011;60105;54.956;73.412;2023-04-03T12:20:55;14.95;;;4.55;;
72201;SDS011;60105;54.956;73.412;2023-04-03T12:30:43;12.50;;;5.53;;
72201;SDS011;60105;54.956;73.412;2023-04-03T12:44:56;11.80;;;6.83;;
72201;SDS011;60105;54.956;73.412;2023-04-03T12:48:16;14.60;;;7.55;;
72201;SDS011;60105;54.956;73.412;2023-04-03T12:54:45;17.17;;;6.20;;
72201;SDS011;60105;54.956;73.412;2023-04-03T12:57:53;17.23;;;7.03;;
72201;SDS011;60105;54.956;73.412;2023-04-03T13:01:42;21.86;;;8.26;;
72201;SDS011;60105;54.956;73.412;2023-04-03T13:04:50;24.05;;;7.75;;
72201;SDS011;60105;54.956;73.412;2023-04-03T13:07:58;14.65;;;7.38;;
72201;SDS011;60105;54.956;73.412;2023-04-03T13:11:10;21.70;;;6.57;;
72201;SDS011;60105;54.956;73.412;2023-04-03T13:14:24;12.30;;;5.93;;
72201;SDS011;60105;54.956;73.412;2023-04-03T13:17:28;11.60;;;5.32;;
72201;SDS011;60105;54.956;73.412;2023-04-03T13:20:31;15.60;;;6.17;;
72201;SDS011;60105;54.956;73.412;2023-04-03T13:23:43;14.52;;;6.47;;
72201;SDS011;60105;54.956;73.412;2023-04-03T13:26:47;12.30;;;5.25;;
72201;SDS011;60105;54.956;73.412;2023-04-03T13:29:50;14.55;;;6.70;;
72201;SDS011;60105;54.956;73.412;2023-04-03T13:33:21;13.83;;;5.87;;
72201;SDS011;60105;54.956;73.412;2023-04-03T13:36:44;16.70;;;6.40;;
72201;SDS011;60105;54.956;73.412;2023-04-03T13:43:18;14.75;;;8.32;;
72201;SDS011;60105;54.956;73.412;2023-04-03T13:53:13;18.65;;;9.40;;
72201;SDS011;60105;54.956;73.412;2023-04-03T13:56:42;19.65;;;9.32;;
72201;SDS011;60105;54.956;73.412;2023-04-03T13:59:43;21.37;;;9.57;;
72201;SDS011;60105;54.956;73.412;2023-04-03T14:02:46;24.57;;;10.60;;
72201;SDS011;60105;54.956;73.412;2023-04-03T14:05:48;28.75;;;11.60;;
72201;SDS011;60105;54.956;73.412;2023-04-03T14:08:49;32.53;;;13.10;;
72201;SDS011;60105;54.956;73.412;2023-04-03T14:11:57;29.13;;;12.80;;
72201;SDS011;60105;54.956;73.412;2023-04-03T14:15:27;26.90;;;12.60;;
72201;SDS011;60105;54.956;73.412;2023-04-03T14:18:29;35.38;;;14.82;;
72201;SDS011;60105;54.956;73.412;2023-04-03T14:24:43;35.50;;;14.60;;
72201;SDS011;60105;54.956;73.412;2023-04-03T14:27:46;30.07;;;13.30;;
72201;SDS011;60105;54.956;73.412;2023-04-03T14:30:49;37.90;;;14.88;;
72201;SDS011;60105;54.956;73.412;2023-04-03T14:33:52;36.00;;;13.90;;
72201;SDS011;60105;54.956;73.412;2023-04-03T14:36:53;39.90;;;15.60;;
72201;SDS011;60105;54.956;73.412;2023-04-03T14:39:55;30.88;;;13.43;;
72201;SDS011;60105;54.956;73.412;2023-04-03T14:42:57;34.77;;;13.97;;
72201;SDS011;60105;54.956;73.412;2023-04-03T14:46:42;28.94;;;13.89;;
72201;SDS011;60105;54.956;73.412;2023-04-03T14:49:44;32.67;;;13.43;;
72201;SDS011;60105;54.956;73.412;2023-04-03T14:52:51;32.70;;;13.75;;
72201;SDS011;60105;54.956;73.412;2023-04-03T14:55:54;34.33;;;13.57;;
72201;SDS011;60105;54.956;73.412;2023-04-03T14:58:58;32.13;;;14.30;;
72201;SDS011;60105;54.956;73.412;2023-04-03T15:02:01;27.15;;;14.02;;
72201;SDS011;60105;54.956;73.412;2023-04-03T15:05:09;30.10;;;13.30;;
72201;SDS011;60105;54.956;73.412;2023-04-03T15:08:17;33.90;;;14.60;;
72201;SDS011;60105;54.956;73.412;2023-04-03T15:11:30;26.23;;;12.63;;
72201;SDS011;60105;54.956;73.412;2023-04-03T15:14:32;35.43;;;12.47;;
72201;SDS011;60105;54.956;73.412;2023-04-03T15:17:34;34.28;;;13.93;;
72201;SDS011;60105;54.956;73.412;2023-04-03T15:20:39;30.90;;;12.43;;
72201;SDS011;60105;54.956;73.412;2023-04-03T15:23:41;34.13;;;13.93;;
72201;SDS011;60105;54.956;73.412;2023-04-03T15:26:43;24.45;;;11.15;;
72201;SDS011;60105;54.956;73.412;2023-04-03T15:29:44;26.03;;;11.83;;
72201;SDS011;60105;54.956;73.412;2023-04-03T15:32:46;23.53;;;11.40;;
72201;SDS011;60105;54.956;73.412;2023-04-03T15:35:48;31.58;;;12.30;;
72201;SDS011;60105;54.956;73.412;2023-04-03T15:38:49;36.67;;;12.88;;
72201;SDS011;60105;54.956;73.412;2023-04-03T15:42:01;32.57;;;13.50;;
72201;SDS011;60105;54.956;73.412;2023-04-03T15:45:07;35.28;;;13.27;;
72201;SDS011;60105;54.956;73.412;2023-04-03T15:48:09;26.57;;;12.73;;
72201;SDS011;60105;54.956;73.412;2023-04-03T15:51:42;22.05;;;10.65;;
72201;SDS011;60105;54.956;73.412;2023-04-03T15:54:43;28.95;;;12.73;;
72201;SDS011;60105;54.956;73.412;2023-04-03T15:57:44;28.70;;;12.38;;
72201;SDS011;60105;54.956;73.412;2023-04-03T16:00:55;27.42;;;12.23;;
72201;SDS011;60105;54.956;73.412;2023-04-03T16:03:57;25.20;;;12.70;;
72201;SDS011;60105;54.956;73.412;2023-04-03T16:07:00;22.58;;;11.30;;
72201;SDS011;60105;54.956;73.412;2023-04-03T16:10:02;22.40;;;9.83;;
72201;SDS011;60105;54.956;73.412;2023-04-03T16:13:05;26.02;;;10.73;;
72201;SDS011;60105;54.956;73.412;2023-04-03T16:16:42;17.70;;;8.65;;
72201;SDS011;60105;54.956;73.412;2023-04-03T16:19:43;23.60;;;10.50;;
72201;SDS011;60105;54.956;73.412;2023-04-03T16:22:44;23.43;;;10.17;;
72201;SDS011;60105;54.956;73.412;2023-04-03T16:25:46;21.25;;;9.88;;
72201;SDS011;60105;54.956;73.412;2023-04-03T16:28:47;22.27;;;9.77;;
72201;SDS011;60105;54.956;73.412;2023-04-03T16:31:59;18.10;;;9.13;;
72201;SDS011;60105;54.956;73.412;2023-04-03T16:35:00;22.38;;;8.35;;
72201;SDS011;60105;54.956;73.412;2023-04-03T16:38:11;18.17;;;7.77;;
72201;SDS011;60105;54.956;73.412;2023-04-03T16:41:13;20.68;;;9.82;;
72201;SDS011;60105;54.956;73.412;2023-04-03T16:44:15;15.00;;;8.63;;
72201;SDS011;60105;54.956;73.412;2023-04-03T16:47:26;17.00;;;7.93;;
72201;SDS011;60105;54.956;73.412;2023-04-03T16:50:27;14.75;;;6.80;;
72201;SDS011;60105;54.956;73.412;2023-04-03T16:53:29;12.88;;;6.95;;
72201;SDS011;60105;54.956;73.412;2023-04-03T16:59:43;16.70;;;6.40;;
72201;SDS011;60105;54.956;73.412;2023-04-03T17:02:44;14.23;;;7.27;;
72201;SDS011;60105;54.956;73.412;2023-04-03T17:05:48;13.85;;;6.20;;
72201;SDS011;60105;54.956;73.412;2023-04-03T17:09:00;12.83;;;6.23;;
72201;SDS011;60105;54.956;73.412;2023-04-03T17:12:01;16.63;;;6.73;;
72201;SDS011;60105;54.956;73.412;2023-04-03T17:15:03;20.27;;;7.65;;
72201;SDS011;60105;54.956;73.412;2023-04-03T17:18:05;14.23;;;7.13;;
72201;SDS011;60105;54.956;73.412;2023-04-03T17:21:42;9.40;;;5.95;;
72201;SDS011;60105;54.956;73.412;2023-04-03T17:24:43;14.40;;;6.05;;
72201;SDS011;60105;54.956;73.412;2023-04-03T17:27:45;12.53;;;5.93;;
72201;SDS011;60105;54.956;73.412;2023-04-03T17:30:46;15.50;;;7.38;;
72201;SDS011;60105;54.956;73.412;2023-04-03T17:33:58;18.00;;;6.70;;
72201;SDS011;60105;54.956;73.412;2023-04-03T17:37:02;15.40;;;6.40;;
72201;SDS011;60105;54.956;73.412;2023-04-03T17:40:04;13.23;;;6.07;;
72201;SDS011;60105;54.956;73.412;2023-04-03T17:43:06;11.60;;;5.07;;
72201;SDS011;60105;54.956;73.412;2023-04-03T17:46:41;8.50;;;4.88;;
72201;SDS011;60105;54.956;73.412;2023-04-03T17:49:43;11.23;;;4.95;;
72201;SDS011;60105;54.956;73.412;2023-04-03T17:52:44;8.40;;;4.23;;
72201;SDS011;60105;54.956;73.412;2023-04-03T17:55:50;10.27;;;4.82;;
72201;SDS011;60105;54.956;73.412;2023-04-03T17:58:56;10.57;;;4.77;;
72201;SDS011;60105;54.956;73.412;2023-04-03T18:02:00;8.10;;;3.83;;
72201;SDS011;60105;54.956;73.412;2023-04-03T18:05:01;14.13;;;4.82;;
72201;SDS011;60105;54.956;73.412;2023-04-03T18:08:09;7.57;;;3.83;;
72201;SDS011;60105;54.956;73.412;2023-04-03T18:11:10;7.30;;;3.97;;
72201;SDS011;60105;54.956;73.412;2023-04-03T18:14:16;9.02;;;4.30;;
72201;SDS011;60105;54.956;73.412;2023-04-03T18:17:21;11.10;;;3.90;;
72201;SDS011;60105;54.956;73.412;2023-04-03T18:20:22;7.72;;;4.38;;
72201;SDS011;60105;54.956;73.412;2023-04-03T18:23:24;8.00;;;3.90;;
72201;SDS011;60105;54.956;73.412;2023-04-03T18:29:47;6.18;;;3.20;;
72201;SDS011;60105;54.956;73.412;2023-04-03T18:32:56;10.90;;;4.33;;
72201;SDS011;60105;54.956;73.412;2023-04-03T18:36:41;7.55;;;3.65;;
72201;SDS011;60105;54.956;73.412;2023-04-03T18:39:53;5.40;;;3.35;;
72201;SDS011;60105;54.956;73.412;2023-04-03T18:42:59;10.57;;;4.00;;
72201;SDS011;60105;54.956;73.412;2023-04-03T18:46:41;10.92;;;4.16;;
72201;SDS011;60105;54.956;73.412;2023-04-03T18:49:43;10.35;;;4.30;;
72201;SDS011;60105;54.956;73.412;2023-04-03T18:52:44;6.43;;;3.53;;
72201;SDS011;60105;54.956;73.412;2023-04-03T18:55:50;10.65;;;4.25;;
72201;SDS011;60105;54.956;73.412;2023-04-03T18:58:56;9.02;;;4.13;;
72201;SDS011;60105;54.956;73.412;2023-04-03T19:01:58;9.93;;;4.57;;
72201;SDS011;60105;54.956;73.412;2023-04-03T19:05:11;9.63;;;4.57;;
72201;SDS011;60105;54.956;73.412;2023-04-03T19:08:14;7.30;;;4.00;;
72201;SDS011;60105;54.956;73.412;2023-04-03T19:11:15;8.40;;;3.60;;
72201;SDS011;60105;54.956;73.412;2023-04-03T19:14:17;7.60;;;3.75;;
72201;SDS011;60105;54.956;73.412;2023-04-03T19:17:18;9.57;;;3.57;;
72201;SDS011;60105;54.956;73.412;2023-04-03T19:20:19;9.48;;;3.92;;
72201;SDS011;60105;54.956;73.412;2023-04-03T19:23:21;6.53;;;3.20;;
72201;SDS011;60105;54.956;73.412;2023-04-03T19:29:42;6.63;;;4.35;;
72201;SDS011;60105;54.956;73.412;2023-04-03T19:32:44;5.83;;;3.40;;
72201;SDS011;60105;54.956;73.412;2023-04-03T19:35:55;5.50;;;3.67;;
72201;SDS011;60105;54.956;73.412;2023-04-03T19:38:57;7.53;;;3.53;;
72201;SDS011;60105;54.956;73.412;2023-04-03T19:42:09;4.70;;;2.80;;
72201;SDS011;60105;54.956;73.412;2023-04-03T19:45:10;6.40;;;4.03;;
72201;SDS011;60105;54.956;73.412;2023-04-03T19:48:14;5.57;;;2.95;;
72201;SDS011;60105;54.956;73.412;2023-04-03T19:51:41;4.85;;;2.88;;
72201;SDS011;60105;54.956;73.412;2023-04-03T19:54:43;7.57;;;3.85;;
72201;SDS011;60105;54.956;73.412;2023-04-03T19:57:44;10.73;;;3.57;;
72201;SDS011;60105;54.956;73.412;2023-04-03T20:00:45;9.15;;;3.22;;
72201;SDS011;60105;54.956;73.412;2023-04-03T20:03:46;8.10;;;3.50;;
72201;SDS011;60105;54.956;73.412;2023-04-03T20:06:48;4.63;;;2.40;;
72201;SDS011;60105;54.956;73.412;2023-04-03T20:09:50;6.70;;;3.45;;
72201;SDS011;60105;54.956;73.412;2023-04-03T20:12:51;7.40;;;3.57;;
72201;SDS011;60105;54.956;73.412;2023-04-03T20:16:42;10.02;;;3.83;;
72201;SDS011;60105;54.956;73.412;2023-04-03T20:19:54;6.20;;;3.40;;
72201;SDS011;60105;54.956;73.412;2023-04-03T20:23:10;8.18;;;3.65;;
72201;SDS011;60105;54.956;73.412;2023-04-03T20:26:41;4.75;;;2.90;;
72201;SDS011;60105;54.956;73.412;2023-04-03T20:29:50;6.38;;;3.60;;
72201;SDS011;60105;54.956;73.412;2023-04-03T20:32:52;4.93;;;3.45;;
72201;SDS011;60105;54.956;73.412;2023-04-03T20:35:54;8.15;;;4.13;;
72201;SDS011;60105;54.956;73.412;2023-04-03T20:38:56;6.78;;;3.35;;
72201;SDS011;60105;54.956;73.412;2023-04-03T20:42:02;9.82;;;3.10;;